createdAt,value
2023-05-21T00:01:03.472Z,12.40
2023-05-21T00:03:31.118Z,12.40
2023-05-21T00:05:58.037Z,12.40
2023-05-21T00:08:24.741Z,12.40
2023-05-21T00:10:51.569Z,12.40
2023-05-21T00:13:18.383Z,12.30
2023-05-21T00:15:45.151Z,12.30
2023-05-21T00:18:12.053Z,12.30
2023-05-21T00:20:38.826Z,12.20
2023-05-21T00:23:05.659Z,12.20
2023-05-21T00:25:32.396Z,12.10
2023-05-21T00:27:59.220Z,12.10
2023-05-21T00:30:25.956Z,12.10
2023-05-21T00:32:52.673Z,12.10
2023-05-21T00:35:19.680Z,12.00
2023-05-21T00:37:47.709Z,12.00
2023-05-21T00:40:14.560Z,12.00
2023-05-21T00:42:41.625Z,12.00
2023-05-21T00:45:08.983Z,12.00
2023-05-21T00:47:35.857Z,11.90
2023-05-21T00:50:03.611Z,11.90
2023-05-21T00:52:30.475Z,11.90
2023-05-21T00:54:57.253Z,11.90
2023-05-21T00:57:25.417Z,11.90
2023-05-21T00:59:52.929Z,11.80
2023-05-21T01:02:19.885Z,11.80
2023-05-21T01:04:46.682Z,11.90
2023-05-21T01:07:14.531Z,11.80
2023-05-21T01:09:41.459Z,11.70
2023-05-21T01:12:08.441Z,11.70
2023-05-21T01:14:36.260Z,11.60
2023-05-21T01:17:05.431Z,11.60
2023-05-21T01:19:32.686Z,11.60
2023-05-21T01:22:05.565Z,11.60
2023-05-21T01:24:32.336Z,11.50
2023-05-21T01:27:00.450Z,11.50
2023-05-21T01:29:27.221Z,11.50
2023-05-21T01:32:04.559Z,11.30
2023-05-21T01:34:45.744Z,11.30
2023-05-21T01:37:14.541Z,11.30
2023-05-21T01:39:43.598Z,11.20
2023-05-21T01:42:10.670Z,11.10
2023-05-21T01:44:37.730Z,11.20
2023-05-21T01:47:04.724Z,11.20
2023-05-21T01:49:31.422Z,11.20
2023-05-21T01:51:58.120Z,11.10
2023-05-21T01:54:24.829Z,11.10
2023-05-21T01:56:51.578Z,11.10
2023-05-21T01:59:18.432Z,11.20
2023-05-21T02:01:45.237Z,11.10
2023-05-21T02:04:12.127Z,11.10
2023-05-21T02:06:39.604Z,11.10
2023-05-21T02:09:06.468Z,11.10
2023-05-21T02:11:33.235Z,11.00
2023-05-21T02:14:00.534Z,11.00
2023-05-21T02:16:27.316Z,11.10
2023-05-21T02:18:57.353Z,11.10
2023-05-21T02:21:24.262Z,11.00
2023-05-21T02:23:51.095Z,10.90
2023-05-21T02:26:17.928Z,10.90
2023-05-21T02:28:44.808Z,10.90
2023-05-21T02:31:12.526Z,10.90
2023-05-21T02:33:41.331Z,10.90
2023-05-21T02:36:13.022Z,10.90
2023-05-21T02:38:43.675Z,10.90
2023-05-21T02:41:11.553Z,10.80
2023-05-21T02:43:38.442Z,10.70
2023-05-21T02:46:06.220Z,10.80
2023-05-21T02:48:33.010Z,10.70
2023-05-21T02:50:59.816Z,10.70
2023-05-21T02:53:26.928Z,10.60
2023-05-21T02:55:53.652Z,10.60
2023-05-21T02:58:23.471Z,10.50
2023-05-21T03:00:50.271Z,10.60
2023-05-21T03:03:17.190Z,10.40
2023-05-21T03:05:45.769Z,10.40
2023-05-21T03:08:12.553Z,10.30
2023-05-21T03:10:39.345Z,10.30
2023-05-21T03:13:09.916Z,10.30
2023-05-21T03:15:38.885Z,10.30
2023-05-21T03:18:05.941Z,10.40
2023-05-21T03:20:33.394Z,10.30
2023-05-21T03:23:00.534Z,10.30
2023-05-21T03:25:27.340Z,10.20
2023-05-21T03:27:54.029Z,10.20
2023-05-21T03:30:20.719Z,10.20
2023-05-21T03:32:47.804Z,10.30
2023-05-21T03:35:14.652Z,10.20
2023-05-21T03:37:41.339Z,10.30
2023-05-21T03:40:08.634Z,10.30
2023-05-21T03:42:35.466Z,10.30
2023-05-21T03:45:03.030Z,10.30
2023-05-21T03:47:29.820Z,10.30
2023-05-21T03:49:56.733Z,10.20
2023-05-21T03:52:23.466Z,10.20
2023-05-21T03:54:50.249Z,10.20
2023-05-21T03:57:17.058Z,10.20
2023-05-21T03:59:43.755Z,10.20
2023-05-21T04:02:10.641Z,10.10
2023-05-21T04:04:37.421Z,10.10
2023-05-21T04:07:04.648Z,10.10
2023-05-21T04:09:31.385Z,10.10
2023-05-21T04:11:58.083Z,10.10
2023-05-21T04:14:24.826Z,10.00
2023-05-21T04:16:51.505Z,10.00
2023-05-21T04:19:18.358Z,9.80
2023-05-21T04:21:45.980Z,9.80
2023-05-21T04:24:12.690Z,9.90
2023-05-21T04:26:42.013Z,9.90
2023-05-21T04:29:09.969Z,10.00
2023-05-21T04:31:36.851Z,9.90
2023-05-21T04:34:03.737Z,10.00
2023-05-21T04:36:30.546Z,10.00
2023-05-21T04:38:57.331Z,10.00
2023-05-21T04:41:24.103Z,10.00
2023-05-21T04:43:55.277Z,9.90
2023-05-21T04:46:25.978Z,9.80
2023-05-21T04:48:55.930Z,9.80
2023-05-21T04:51:24.680Z,9.80
2023-05-21T04:53:51.561Z,9.90
2023-05-21T04:56:18.656Z,9.80
2023-05-21T04:58:46.043Z,9.80
2023-05-21T05:01:12.931Z,9.90
2023-05-21T05:03:39.814Z,9.90
2023-05-21T05:06:07.858Z,9.90
2023-05-21T05:08:35.205Z,10.00
2023-05-21T05:11:02.385Z,10.00
2023-05-21T05:13:29.137Z,10.10
2023-05-21T05:15:57.516Z,10.10
2023-05-21T05:18:24.397Z,10.10
2023-05-21T05:20:51.274Z,10.20
2023-05-21T05:23:18.121Z,10.30
2023-05-21T05:25:44.976Z,10.30
2023-05-21T05:28:11.753Z,10.40
2023-05-21T05:30:38.579Z,10.50
2023-05-21T05:33:05.362Z,10.50
2023-05-21T05:35:32.095Z,10.60
2023-05-21T05:37:58.833Z,10.70
2023-05-21T05:40:25.626Z,10.80
2023-05-21T05:42:52.807Z,10.80
2023-05-21T05:45:20.040Z,10.90
2023-05-21T05:47:46.916Z,11.00
2023-05-21T05:50:13.741Z,11.00
2023-05-21T05:52:40.456Z,11.00
2023-05-21T05:55:08.946Z,11.00
2023-05-21T05:57:36.080Z,11.10
2023-05-21T06:00:03.968Z,11.10
2023-05-21T06:02:30.863Z,11.20
2023-05-21T06:04:58.367Z,11.30
2023-05-21T06:07:25.090Z,11.30
2023-05-21T06:09:51.787Z,11.40
2023-05-21T06:12:18.594Z,11.40
2023-05-21T06:14:46.265Z,11.50
2023-05-21T06:17:13.115Z,11.50
2023-05-21T06:19:39.982Z,11.60
2023-05-21T06:22:06.802Z,11.60
2023-05-21T06:24:33.533Z,11.60
2023-05-21T06:27:00.760Z,11.70
2023-05-21T06:29:27.595Z,11.80
2023-05-21T06:31:54.295Z,11.90
2023-05-21T06:34:21.045Z,11.90
2023-05-21T06:36:48.476Z,12.00
2023-05-21T06:39:15.183Z,12.00
2023-05-21T06:41:41.944Z,12.10
2023-05-21T06:44:08.803Z,12.20
2023-05-21T06:46:36.291Z,12.20
2023-05-21T06:49:03.138Z,12.30
2023-05-21T06:51:29.878Z,12.40
2023-05-21T06:53:56.668Z,12.40
2023-05-21T06:56:23.455Z,12.50
2023-05-21T06:58:50.440Z,12.50
2023-05-21T07:01:17.270Z,12.60
2023-05-21T07:03:44.239Z,12.70
2023-05-21T07:06:11.044Z,12.70
2023-05-21T07:08:37.733Z,12.70
2023-05-21T07:11:04.454Z,12.80
2023-05-21T07:13:31.304Z,12.80
2023-05-21T07:15:58.045Z,12.90
2023-05-21T07:18:24.933Z,12.90
2023-05-21T07:20:51.672Z,13.00
2023-05-21T07:23:18.442Z,13.00
2023-05-21T07:25:45.285Z,13.10
2023-05-21T07:28:12.126Z,13.20
2023-05-21T07:30:39.007Z,13.20
2023-05-21T07:33:05.794Z,13.30
2023-05-21T07:35:32.592Z,13.40
2023-05-21T07:37:59.359Z,13.50
2023-05-21T07:40:26.259Z,13.60
2023-05-21T07:42:53.097Z,13.60
2023-05-21T07:45:19.998Z,13.70
2023-05-21T07:47:47.001Z,13.80
2023-05-21T07:50:14.778Z,13.90
2023-05-21T07:52:41.682Z,14.00
2023-05-21T07:55:09.325Z,14.00
2023-05-21T07:57:36.832Z,14.10
2023-05-21T08:00:05.513Z,14.20
2023-05-21T08:02:32.318Z,14.20
2023-05-21T08:04:59.176Z,14.30
2023-05-21T08:07:26.603Z,14.30
2023-05-21T08:09:54.460Z,14.40
2023-05-21T08:12:21.211Z,14.50
2023-05-21T08:14:47.934Z,14.60
2023-05-21T08:17:15.957Z,14.70
2023-05-21T08:19:42.876Z,14.80
2023-05-21T08:22:10.136Z,14.90
2023-05-21T08:24:36.960Z,14.90
2023-05-21T08:27:03.939Z,15.00
2023-05-21T08:29:30.901Z,15.10
2023-05-21T08:31:57.695Z,15.20
2023-05-21T08:34:24.594Z,15.20
2023-05-21T08:36:51.378Z,15.30
2023-05-21T08:39:18.263Z,15.40
2023-05-21T08:41:51.949Z,15.50
2023-05-21T08:44:20.454Z,15.50
2023-05-21T08:46:48.099Z,15.60
2023-05-21T08:49:16.014Z,15.70
2023-05-21T08:51:44.773Z,15.70
2023-05-21T08:54:13.966Z,15.80
2023-05-21T08:56:45.651Z,15.90
2023-05-21T08:59:12.629Z,16.00
2023-05-21T09:01:42.361Z,16.20
2023-05-21T09:04:20.323Z,16.20
2023-05-21T09:06:47.945Z,16.30
2023-05-21T09:09:36.322Z,16.30
2023-05-21T09:12:03.210Z,16.40
2023-05-21T09:14:30.034Z,16.40
2023-05-21T09:16:56.876Z,16.40
2023-05-21T09:19:23.833Z,16.40
2023-05-21T09:21:53.842Z,16.50
2023-05-21T09:24:23.428Z,16.50
2023-05-21T09:26:50.448Z,16.70
2023-05-21T09:29:17.221Z,16.70
2023-05-21T09:31:45.022Z,16.90
2023-05-21T09:34:13.598Z,17.00
2023-05-21T09:36:40.588Z,17.00
2023-05-21T09:39:07.497Z,17.00
2023-05-21T09:41:35.897Z,17.10
2023-05-21T09:44:02.945Z,17.10
2023-05-21T09:46:38.652Z,17.10
2023-05-21T09:49:05.677Z,17.10
2023-05-21T09:51:32.471Z,17.20
2023-05-21T09:53:59.208Z,17.30
2023-05-21T09:56:27.110Z,17.40
2023-05-21T09:59:04.407Z,17.40
2023-05-21T10:01:33.322Z,17.60
2023-05-21T10:04:02.329Z,17.70
2023-05-21T10:06:31.100Z,17.60
2023-05-21T10:09:00.599Z,17.50
2023-05-21T10:11:31.363Z,17.60
2023-05-21T10:14:01.160Z,17.50
2023-05-21T10:16:31.919Z,17.50
2023-05-21T10:18:58.748Z,17.40
2023-05-21T10:21:26.976Z,17.50
2023-05-21T10:23:56.591Z,17.40
2023-05-21T10:26:24.181Z,17.40
2023-05-21T10:28:51.311Z,17.50
2023-05-21T10:31:18.446Z,17.60
2023-05-21T10:33:45.179Z,17.70
2023-05-21T10:36:11.948Z,17.90
2023-05-21T10:38:38.987Z,17.90
2023-05-21T10:41:06.896Z,17.90
2023-05-21T10:43:46.557Z,17.90
2023-05-21T10:46:38.288Z,17.90
2023-05-21T10:49:42.906Z,17.80
2023-05-21T10:52:25.428Z,17.70
2023-05-21T10:55:07.259Z,17.80
2023-05-21T10:58:16.408Z,17.80
2023-05-21T11:00:43.780Z,17.90
2023-05-21T11:03:11.668Z,17.90
2023-05-21T11:05:51.646Z,18.00
2023-05-21T11:08:31.687Z,18.20
2023-05-21T11:10:59.022Z,18.30
2023-05-21T11:13:26.671Z,18.40
2023-05-21T11:15:59.799Z,18.40
2023-05-21T11:18:35.565Z,18.60
2023-05-21T11:21:06.502Z,18.60
2023-05-21T11:24:04.682Z,18.80
2023-05-21T11:26:52.617Z,18.90
2023-05-21T11:29:20.056Z,19.00
2023-05-21T11:31:48.120Z,19.00
2023-05-21T11:34:35.063Z,19.00
2023-05-21T11:37:33.249Z,19.00
2023-05-21T11:40:30.483Z,19.00
2023-05-21T11:42:57.469Z,19.00
2023-05-21T11:45:32.353Z,18.90
2023-05-21T11:47:59.255Z,18.80
2023-05-21T11:50:26.046Z,18.80
2023-05-21T11:52:52.873Z,18.90
2023-05-21T11:55:23.878Z,19.10
2023-05-21T11:57:52.965Z,19.30
2023-05-21T12:00:19.823Z,19.40
2023-05-21T12:02:54.342Z,19.40
2023-05-21T12:05:21.881Z,19.50
2023-05-21T12:07:50.104Z,19.70
2023-05-21T12:10:17.150Z,19.70
2023-05-21T12:12:54.697Z,19.70
2023-05-21T12:15:24.475Z,19.50
2023-05-21T12:17:52.952Z,19.40
2023-05-21T12:20:20.114Z,19.40
2023-05-21T12:22:49.038Z,19.40
2023-05-21T12:25:20.122Z,19.50
2023-05-21T12:27:47.560Z,19.40
2023-05-21T12:30:14.329Z,19.30
2023-05-21T12:32:44.081Z,19.20
2023-05-21T12:35:20.756Z,19.30
2023-05-21T12:37:47.530Z,19.50
2023-05-21T12:40:14.346Z,19.50
2023-05-21T12:42:41.163Z,19.50
2023-05-21T12:45:08.401Z,19.60
2023-05-21T12:47:35.253Z,19.60
2023-05-21T12:50:08.496Z,19.60
2023-05-21T12:52:35.330Z,19.50
2023-05-21T12:55:02.127Z,19.40
2023-05-21T12:57:36.110Z,19.30
2023-05-21T13:00:06.451Z,19.20
2023-05-21T13:02:38.065Z,19.20
2023-05-21T13:05:06.404Z,19.30
2023-05-21T13:07:34.578Z,19.30
2023-05-21T13:10:02.020Z,19.40
2023-05-21T13:12:30.444Z,19.30
2023-05-21T13:14:58.239Z,19.30
2023-05-21T13:17:25.913Z,19.30
2023-05-21T13:20:09.436Z,19.30
2023-05-21T13:22:39.189Z,19.40
2023-05-21T13:25:07.155Z,19.50
2023-05-21T13:27:34.006Z,19.60
2023-05-21T13:30:01.049Z,19.50
2023-05-21T13:32:28.378Z,19.50
2023-05-21T13:34:55.393Z,19.50
2023-05-21T13:37:22.174Z,19.40
2023-05-21T13:39:49.000Z,19.30
2023-05-21T13:42:15.910Z,19.30
2023-05-21T13:44:42.706Z,19.20
2023-05-21T13:47:10.375Z,19.10
2023-05-21T13:49:37.260Z,19.10
2023-05-21T13:52:04.456Z,19.00
2023-05-21T13:54:31.223Z,19.00
2023-05-21T13:56:57.966Z,19.00
2023-05-21T13:59:24.741Z,19.00
2023-05-21T14:01:52.425Z,18.90
2023-05-21T14:04:19.542Z,19.00
2023-05-21T14:06:46.813Z,19.00
2023-05-21T14:09:13.741Z,19.10
2023-05-21T14:11:40.515Z,19.20
2023-05-21T14:14:07.200Z,19.30
2023-05-21T14:16:34.012Z,19.40
2023-05-21T14:19:00.787Z,19.40
2023-05-21T14:21:27.782Z,19.50
2023-05-21T14:23:54.528Z,19.60
2023-05-21T14:26:22.311Z,19.60
2023-05-21T14:28:49.284Z,19.50
2023-05-21T14:31:16.275Z,19.50
2023-05-21T14:33:43.058Z,19.50
2023-05-21T14:36:09.736Z,19.40
2023-05-21T14:38:36.564Z,19.30
2023-05-21T14:41:03.299Z,19.40
2023-05-21T14:43:30.254Z,19.30
2023-05-21T14:45:57.062Z,19.30
2023-05-21T14:48:24.079Z,19.30
2023-05-21T14:50:51.450Z,19.20
2023-05-21T14:53:18.674Z,19.20
2023-05-21T14:55:45.582Z,19.30
2023-05-21T14:58:12.340Z,19.30
2023-05-21T15:00:39.213Z,19.20
2023-05-21T15:03:06.230Z,19.20
2023-05-21T15:05:33.520Z,19.20
2023-05-21T15:08:00.569Z,19.20
2023-05-21T15:10:28.228Z,19.30
2023-05-21T15:12:55.008Z,19.30
2023-05-21T15:15:21.857Z,19.30
2023-05-21T15:17:49.042Z,19.30
2023-05-21T15:20:16.062Z,19.30
2023-05-21T15:22:42.824Z,19.50
2023-05-21T15:25:10.013Z,19.60
2023-05-21T15:27:36.733Z,19.60
2023-05-21T15:30:04.137Z,19.60
2023-05-21T15:32:31.549Z,19.60
2023-05-21T15:34:58.498Z,19.60
2023-05-21T15:37:26.172Z,19.70
2023-05-21T15:39:55.930Z,19.80
2023-05-21T15:42:22.790Z,19.90
2023-05-21T15:44:49.885Z,19.70
2023-05-21T15:47:16.603Z,19.70
2023-05-21T15:49:43.494Z,19.60
2023-05-21T15:52:10.452Z,19.60
2023-05-21T15:54:37.171Z,19.50
2023-05-21T15:57:07.101Z,19.50
2023-05-21T15:59:33.906Z,19.60
2023-05-21T16:02:01.151Z,19.50
2023-05-21T16:04:33.043Z,19.50
2023-05-21T16:06:59.772Z,19.40
2023-05-21T16:09:26.535Z,19.30
2023-05-21T16:11:53.264Z,19.30
2023-05-21T16:14:20.224Z,19.40
2023-05-21T16:16:48.166Z,19.40
2023-05-21T16:19:14.965Z,19.40
2023-05-21T16:21:42.083Z,19.40
2023-05-21T16:24:08.807Z,19.30
2023-05-21T16:26:35.617Z,19.20
2023-05-21T16:29:05.433Z,19.10
2023-05-21T16:31:32.221Z,19.00
2023-05-21T16:33:58.974Z,19.00
2023-05-21T16:36:25.785Z,18.90
2023-05-21T16:38:52.568Z,18.80
2023-05-21T16:41:19.470Z,18.80
2023-05-21T16:43:46.241Z,18.70
2023-05-21T16:46:22.364Z,18.70
2023-05-21T16:48:49.235Z,18.70
2023-05-21T16:51:15.957Z,18.70
2023-05-21T16:53:42.685Z,18.70
2023-05-21T16:56:09.402Z,18.60
2023-05-21T16:58:36.167Z,18.60
2023-05-21T17:01:03.819Z,18.50
2023-05-21T17:03:32.431Z,18.50
2023-05-21T17:05:59.256Z,18.40
2023-05-21T17:08:26.201Z,18.30
2023-05-21T17:10:53.135Z,18.30
2023-05-21T17:13:22.856Z,18.30
2023-05-21T17:15:51.066Z,18.30
2023-05-21T17:18:17.959Z,18.30
2023-05-21T17:20:44.831Z,18.30
2023-05-21T17:23:12.584Z,18.30
2023-05-21T17:25:40.073Z,18.20
2023-05-21T17:28:07.177Z,18.10
2023-05-21T17:30:34.149Z,18.10
2023-05-21T17:33:03.690Z,18.10
2023-05-21T17:35:30.649Z,18.00
2023-05-21T17:37:57.559Z,18.00
2023-05-21T17:40:25.230Z,18.00
2023-05-21T17:42:52.786Z,17.90
2023-05-21T17:45:20.158Z,17.80
2023-05-21T17:47:47.018Z,17.80
2023-05-21T17:50:13.847Z,17.70
2023-05-21T17:52:40.623Z,17.70
2023-05-21T17:55:07.981Z,17.70
2023-05-21T17:57:36.105Z,17.70
2023-05-21T18:00:04.969Z,17.70
2023-05-21T18:02:31.935Z,17.70
2023-05-21T18:04:58.733Z,17.70
2023-05-21T18:07:25.724Z,17.60
2023-05-21T18:09:52.542Z,17.60
2023-05-21T18:12:19.273Z,17.60
2023-05-21T18:14:46.206Z,17.60
2023-05-21T18:17:13.096Z,17.50
2023-05-21T18:19:39.821Z,17.50
2023-05-21T18:22:06.692Z,17.50
2023-05-21T18:24:33.687Z,17.50
2023-05-21T18:27:00.566Z,17.50
2023-05-21T18:29:27.258Z,17.40
2023-05-21T18:31:54.166Z,17.50
2023-05-21T18:34:21.048Z,17.40
2023-05-21T18:36:48.155Z,17.50
2023-05-21T18:39:14.958Z,17.50
2023-05-21T18:41:41.828Z,17.40
2023-05-21T18:44:08.858Z,17.40
2023-05-21T18:46:36.005Z,17.40
2023-05-21T18:49:02.849Z,17.40
2023-05-21T18:51:29.591Z,17.30
2023-05-21T18:53:56.690Z,17.30
2023-05-21T18:56:23.473Z,17.20
2023-05-21T18:58:50.298Z,17.20
2023-05-21T19:01:18.142Z,17.20
2023-05-21T19:03:44.965Z,17.20
2023-05-21T19:06:11.893Z,17.20
2023-05-21T19:08:40.471Z,17.20
2023-05-21T19:11:07.482Z,17.20
2023-05-21T19:13:35.049Z,17.20
2023-05-21T19:16:02.494Z,17.20
2023-05-21T19:18:32.391Z,17.20
2023-05-21T19:21:00.482Z,17.10
2023-05-21T19:23:27.211Z,17.10
2023-05-21T19:25:53.992Z,17.00
2023-05-21T19:28:20.747Z,17.00
2023-05-21T19:30:47.558Z,16.90
2023-05-21T19:33:14.329Z,16.80
2023-05-21T19:35:43.073Z,16.70
2023-05-21T19:38:13.170Z,16.70
2023-05-21T19:40:39.954Z,16.60
2023-05-21T19:43:06.661Z,16.50
2023-05-21T19:45:33.566Z,16.40
2023-05-21T19:48:00.320Z,16.30
2023-05-21T19:50:28.675Z,16.20
2023-05-21T19:52:57.195Z,16.10
2023-05-21T19:55:24.828Z,16.10
2023-05-21T19:57:51.924Z,16.00
2023-05-21T20:00:19.228Z,15.90
2023-05-21T20:02:46.355Z,15.80
2023-05-21T20:05:13.466Z,15.80
2023-05-21T20:07:41.291Z,15.70
2023-05-21T20:10:08.843Z,15.70
2023-05-21T20:12:36.001Z,15.60
2023-05-21T20:15:06.744Z,15.60
2023-05-21T20:17:39.351Z,15.50
2023-05-21T20:20:10.233Z,15.50
2023-05-21T20:22:37.147Z,15.50
2023-05-21T20:25:04.783Z,15.40
2023-05-21T20:27:32.106Z,15.40
2023-05-21T20:29:58.900Z,15.40
2023-05-21T20:32:25.803Z,15.30
2023-05-21T20:35:02.920Z,15.30
2023-05-21T20:37:32.494Z,15.20
2023-05-21T20:39:59.982Z,15.20
2023-05-21T20:42:28.511Z,15.20
2023-05-21T20:44:55.513Z,15.20
2023-05-21T20:47:23.521Z,15.10
2023-05-21T20:49:53.816Z,15.10
2023-05-21T20:52:20.897Z,15.10
2023-05-21T20:54:48.857Z,15.20
2023-05-21T20:57:16.087Z,15.20
2023-05-21T20:59:43.268Z,15.30
2023-05-21T21:02:11.279Z,15.20
2023-05-21T21:04:38.036Z,15.30
2023-05-21T21:07:07.995Z,15.30
2023-05-21T21:09:34.717Z,15.40
2023-05-21T21:12:06.148Z,15.40
2023-05-21T21:14:38.254Z,15.40
2023-05-21T21:17:05.063Z,15.40
2023-05-21T21:19:31.852Z,15.30
2023-05-21T21:21:58.865Z,15.30
2023-05-21T21:24:25.800Z,15.30
2023-05-21T21:26:52.825Z,15.30
2023-05-21T21:29:19.618Z,15.30
2023-05-21T21:31:47.582Z,15.30
2023-05-21T21:34:14.485Z,15.20
2023-05-21T21:36:41.326Z,15.30
2023-05-21T21:39:08.050Z,15.20
2023-05-21T21:41:34.831Z,15.20
2023-05-21T21:44:01.689Z,15.10
2023-05-21T21:46:28.550Z,15.10
2023-05-21T21:48:55.474Z,15.10
2023-05-21T21:51:23.478Z,15.10
2023-05-21T21:53:50.588Z,15.10
2023-05-21T21:56:17.377Z,15.00
2023-05-21T21:58:44.243Z,15.10
2023-05-21T22:01:11.139Z,15.00
2023-05-21T22:03:37.950Z,14.90
2023-05-21T22:06:04.951Z,15.00
2023-05-21T22:08:31.720Z,14.90
2023-05-21T22:10:58.883Z,14.90
2023-05-21T22:13:26.937Z,14.80
2023-05-21T22:15:55.069Z,14.80
2023-05-21T22:18:36.401Z,14.70
2023-05-21T22:21:14.065Z,14.70
2023-05-21T22:23:41.118Z,14.70
2023-05-21T22:26:08.528Z,14.60
2023-05-21T22:28:35.413Z,14.60
2023-05-21T22:31:02.250Z,14.50
2023-05-21T22:33:29.384Z,14.50
2023-05-21T22:35:56.929Z,14.40
2023-05-21T22:38:24.198Z,14.30
2023-05-21T22:40:51.135Z,14.30
2023-05-21T22:43:17.904Z,14.30
2023-05-21T22:45:44.653Z,14.20
2023-05-21T22:48:11.442Z,14.10
2023-05-21T22:50:38.706Z,14.10
2023-05-21T22:53:05.733Z,14.10
2023-05-21T22:55:32.521Z,14.10
2023-05-21T22:57:59.325Z,14.00
2023-05-21T23:00:26.536Z,14.00
2023-05-21T23:02:54.512Z,14.00
2023-05-21T23:05:22.122Z,14.00
2023-05-21T23:07:49.100Z,13.90
2023-05-21T23:10:15.922Z,13.80
2023-05-21T23:12:42.769Z,13.80
2023-05-21T23:15:10.737Z,13.80
2023-05-21T23:17:38.178Z,13.80
2023-05-21T23:20:06.168Z,13.70
2023-05-21T23:22:35.048Z,13.70
2023-05-21T23:25:01.893Z,13.70
2023-05-21T23:27:29.194Z,13.70
2023-05-21T23:29:55.983Z,13.60
2023-05-21T23:32:23.478Z,13.50
2023-05-21T23:34:50.353Z,13.50
2023-05-21T23:37:20.397Z,13.50
2023-05-21T23:39:49.667Z,13.40
2023-05-21T23:42:17.085Z,13.40
2023-05-21T23:44:43.976Z,13.40
2023-05-21T23:47:10.807Z,13.30
2023-05-21T23:49:37.553Z,13.30
2023-05-21T23:52:05.072Z,13.30
2023-05-21T23:54:31.823Z,13.20
2023-05-21T23:56:58.530Z,13.20
2023-05-21T23:59:25.225Z,13.20
